Observations for EDINBURGH AIRPORT, United Kingdom (EGPH)

EGPH 100850Z VRB02KT CAVOK M02/M02 Q1025
EGPH 100820Z VRB01KT CAVOK M02/M02 Q1024
EGPH 100750Z 25003KT CAVOK M02/M02 Q1024
EGPH 100720Z 00000KT CAVOK M02/M02 Q1024
EGPH 100650Z 24004KT CAVOK M01/M01 Q1024
EGPH 100620Z 24003KT CAVOK M02/M02 Q1023
EGPH 100550Z VRB01KT CAVOK M01/M01 Q1023
EGPH 100520Z 26005KT CAVOK M00/M00 Q1023
EGPH 100450Z 28003KT CAVOK M02/M02 Q1022
EGPH 100420Z 23002KT CAVOK M02/M02 Q1022
EGPH 100350Z 29001KT 9999 R24/0800 MIFG NSC M02/M03 Q1022   
EGPH 100320Z 00000KT 9999 R24/0750 MIFG NSC M03/M03 Q1021   
EGPH 100250Z 29003KT CAVOK M01/M01 Q1021
EGPH 100220Z VRB01KT CAVOK M02/M02 Q1021
EGPH 100150Z VRB02KT CAVOK 01/00 Q1021  
EGPH 100120Z VRB03KT CAVOK 00/M00 Q1020 
EGPH 100050Z VRB02KT CAVOK 01/00 Q1020  
EGPH 100020Z VRB02KT CAVOK M01/M02 Q1019
EGPH 092350Z 27004KT CAVOK 01/01 Q1019  
EGPH 092320Z VRB03KT CAVOK 01/01 Q1019  
EGPH 092250Z VRB02KT CAVOK 01/00 Q1019  
EGPH 092220Z VRB02KT CAVOK 00/M00 Q1018 
EGPH 092150Z VRB01KT CAVOK 01/00 Q1018  
EGPH 092120Z VRB03KT CAVOK 01/00 Q1018  
EGPH 092050Z VRB03KT CAVOK 01/00 Q1017  
EGPH 092020Z 25006KT CAVOK 01/M00 Q1017 
EGPH 091950Z 25005KT CAVOK 00/M00 Q1016 
EGPH 091920Z 26006KT 9999 FEW035 02/01 Q1016
EGPH 091850Z 25005KT 9999 FEW035 01/00 Q1016
EGPH 091820Z 25005KT 9999 FEW035 01/00 Q1015
EGPH 091750Z 25005KT 9999 FEW035 02/01 Q1015
EGPH 091720Z 25005KT 9999 SCT034 03/01 Q1014
EGPH 091650Z 24006KT 9999 SCT030 03/01 Q1014
EGPH 091620Z 25004KT 9999 SCT035 03/01 Q1013
EGPH 091550Z VRB02KT 9999 SCT020 04/02 Q1013
EGPH 091520Z 35005KT 9999 SCT020 05/02 Q1012
EGPH 091450Z VRB02KT 9999 FEW023 SCT039 05/02 Q1012 
EGPH 091420Z VRB03KT 9999 FEW027 SCT045 06/02 Q1011 
EGPH 091350Z 27004KT 9999 BKN040 06/03 Q1011
EGPH 091320Z 27006KT 9999 SCT047 06/02 Q1010
EGPH 091250Z 28005KT 260V320 9999 FEW048 07/03 Q1009
EGPH 091220Z 24005KT CAVOK 06/03 Q1009  
EGPH 091150Z 25004KT 9999 FEW037 05/02 Q1009
EGPH 091120Z 29004KT 250V340 9999 FEW040 05/02 Q1008
EGPH 091050Z 24004KT 210V270 9999 FEW045 03/01 Q1008
EGPH 091020Z 28005KT 250V320 CAVOK 05/02 Q1007  
EGPH 090950Z 23004KT CAVOK 02/01 Q1006  
EGPH 090920Z 24008KT CAVOK 01/M00 Q1005 
EGPH 090850Z 23004KT 200V270 CAVOK 01/M00 Q1004 
EGPH 090820Z 25004KT CAVOK 01/00 Q1003